createdAt,value
2022-12-28T00:01:51.844Z,4.80
2022-12-28T00:07:06.300Z,7.67
2022-12-28T00:12:09.353Z,7.70
2022-12-28T00:17:12.526Z,8.13
2022-12-28T00:22:16.052Z,10.43
2022-12-28T00:27:19.481Z,9.57
2022-12-28T00:32:23.330Z,5.73
2022-12-28T00:37:26.638Z,6.47
2022-12-28T00:42:29.609Z,7.73
2022-12-28T00:47:33.037Z,4.50
2022-12-28T00:52:36.110Z,5.43
2022-12-28T00:57:41.269Z,5.73
2022-12-28T01:02:44.772Z,6.43
2022-12-28T01:07:47.963Z,7.87
2022-12-28T01:12:51.255Z,6.27
2022-12-28T01:17:56.134Z,5.63
2022-12-28T01:22:59.068Z,5.80
2022-12-28T01:28:03.094Z,11.70
2022-12-28T01:33:06.108Z,6.33
2022-12-28T01:38:09.168Z,6.33
2022-12-28T01:43:29.483Z,7.40
2022-12-28T01:48:33.751Z,8.80
2022-12-28T01:53:36.922Z,10.50
2022-12-28T01:58:40.374Z,9.10
2022-12-28T02:03:43.942Z,14.17
2022-12-28T02:08:54.185Z,10.23
2022-12-28T02:14:02.198Z,9.67
2022-12-28T02:19:06.572Z,8.80
2022-12-28T02:24:35.903Z,8.97
2022-12-28T02:30:03.805Z,8.77
2022-12-28T02:35:18.978Z,9.83
2022-12-28T02:40:35.289Z,10.63
2022-12-28T02:46:02.936Z,10.87
2022-12-28T02:51:43.693Z,9.10
2022-12-28T02:56:56.293Z,9.53
2022-12-28T03:02:14.661Z,9.23
2022-12-28T03:07:45.980Z,10.10
2022-12-28T03:13:03.703Z,9.57
2022-12-28T03:18:32.684Z,9.40
2022-12-28T03:23:56.582Z,10.50
2022-12-28T03:29:21.311Z,9.80
2022-12-28T03:34:24.591Z,12.03
2022-12-28T03:39:43.271Z,8.73
2022-12-28T03:44:53.080Z,8.90
2022-12-28T03:49:56.474Z,7.80
2022-12-28T03:54:59.829Z,7.10
2022-12-28T04:00:04.689Z,8.80
2022-12-28T04:05:18.818Z,6.57
2022-12-28T04:10:24.423Z,5.87
2022-12-28T04:15:28.171Z,7.77
2022-12-28T04:20:31.407Z,6.30
2022-12-28T04:25:34.364Z,6.30
2022-12-28T04:30:37.574Z,4.97
2022-12-28T04:35:40.768Z,4.77
2022-12-28T04:40:44.208Z,4.83
2022-12-28T04:45:56.539Z,4.77
2022-12-28T04:50:59.708Z,5.43
2022-12-28T04:56:07.184Z,7.97
2022-12-28T05:01:13.165Z,4.83
2022-12-28T05:06:18.144Z,5.67
2022-12-28T05:11:23.631Z,6.10
2022-12-28T05:16:28.633Z,6.00
2022-12-28T05:21:31.726Z,5.47
2022-12-28T05:26:36.039Z,5.03
2022-12-28T05:31:39.118Z,5.53
2022-12-28T05:36:42.494Z,6.37
2022-12-28T05:41:45.599Z,7.07
2022-12-28T05:46:48.405Z,9.80
2022-12-28T05:51:54.915Z,7.60
2022-12-28T05:56:58.529Z,7.67
2022-12-28T06:02:01.629Z,8.03
2022-12-28T06:07:04.928Z,9.40
2022-12-28T06:12:08.119Z,9.40
2022-12-28T06:17:11.108Z,9.70
2022-12-28T06:22:14.214Z,9.70
2022-12-28T06:27:17.132Z,10.67
2022-12-28T06:32:20.204Z,11.80
2022-12-28T06:37:23.258Z,11.37
2022-12-28T06:42:26.566Z,12.17
2022-12-28T06:47:29.452Z,13.07
2022-12-28T06:52:32.817Z,12.33
2022-12-28T06:57:35.747Z,12.57
2022-12-28T07:02:38.820Z,12.80
2022-12-28T07:07:45.711Z,13.93
2022-12-28T07:12:48.726Z,12.37
2022-12-28T07:17:51.645Z,13.53
2022-12-28T07:22:55.255Z,14.77
2022-12-28T07:27:58.292Z,13.17
2022-12-28T07:33:01.249Z,12.43
2022-12-28T07:38:04.191Z,22.47
2022-12-28T07:43:07.585Z,14.97
2022-12-28T07:48:10.472Z,13.93
2022-12-28T07:53:17.440Z,13.53
2022-12-28T07:58:25.044Z,14.77
2022-12-28T08:03:28.262Z,16.20
2022-12-28T08:08:36.051Z,15.63
2022-12-28T08:13:41.455Z,15.30
2022-12-28T08:18:44.936Z,15.83
2022-12-28T08:23:48.538Z,15.53
2022-12-28T08:28:54.596Z,13.90
2022-12-28T08:33:58.930Z,13.93
2022-12-28T08:39:02.663Z,15.30
2022-12-28T08:44:06.162Z,13.33
2022-12-28T08:49:09.556Z,14.90
2022-12-28T08:54:13.931Z,13.50
2022-12-28T08:59:19.326Z,14.27
2022-12-28T09:04:22.872Z,13.03
2022-12-28T09:09:26.256Z,12.83
2022-12-28T09:14:30.025Z,13.00
2022-12-28T09:19:33.071Z,13.83
2022-12-28T09:24:36.542Z,16.70
2022-12-28T09:29:39.611Z,11.73
2022-12-28T09:34:42.771Z,13.87
2022-12-28T09:39:45.927Z,15.73
2022-12-28T09:45:06.856Z,15.53
2022-12-28T09:50:19.079Z,14.53
2022-12-28T09:55:24.031Z,22.50
2022-12-28T10:00:38.259Z,18.03
2022-12-28T10:05:41.524Z,14.30
2022-12-28T10:10:48.691Z,30.87
2022-12-28T10:15:53.512Z,23.97
2022-12-28T10:20:57.458Z,29.00
2022-12-28T10:26:01.462Z,16.73
2022-12-28T10:31:07.901Z,15.73
2022-12-28T10:36:13.876Z,35.40
2022-12-28T10:41:17.331Z,16.90
2022-12-28T10:46:23.284Z,15.27
2022-12-28T10:51:28.237Z,14.23
2022-12-28T10:56:33.204Z,13.67
2022-12-28T11:01:36.951Z,15.60
2022-12-28T11:06:56.401Z,11.23
2022-12-28T11:12:26.795Z,16.83
2022-12-28T11:17:35.032Z,16.73
2022-12-28T11:22:40.696Z,11.40
2022-12-28T11:27:46.357Z,9.87
2022-12-28T11:33:01.315Z,8.53
2022-12-28T11:38:05.877Z,8.47
2022-12-28T11:43:29.769Z,8.00
2022-12-28T11:48:42.142Z,8.20
2022-12-28T11:53:45.030Z,15.20
2022-12-28T11:59:02.428Z,11.67
2022-12-28T12:04:11.921Z,9.30
2022-12-28T12:09:28.645Z,7.77
2022-12-28T12:14:44.740Z,8.13
2022-12-28T12:19:51.318Z,7.23
2022-12-28T12:25:05.817Z,13.97
2022-12-28T12:30:22.439Z,13.83
2022-12-28T12:35:30.079Z,6.97
2022-12-28T12:41:08.670Z,7.23
2022-12-28T12:46:29.918Z,9.10
2022-12-28T12:51:50.684Z,7.80
2022-12-28T12:56:58.437Z,12.73
2022-12-28T13:02:23.659Z,11.23
2022-12-28T13:07:27.855Z,8.23
2022-12-28T13:12:31.281Z,8.13
2022-12-28T13:17:35.563Z,7.30
2022-12-28T13:22:42.659Z,7.53
2022-12-28T13:27:45.724Z,8.33
2022-12-28T13:33:03.612Z,9.00
2022-12-28T13:38:09.876Z,9.23
2022-12-28T13:43:35.364Z,7.60
2022-12-28T13:48:41.396Z,6.50
2022-12-28T13:53:48.453Z,8.53
2022-12-28T13:58:58.425Z,7.10
2022-12-28T14:04:42.287Z,7.30
2022-12-28T14:09:29.091Z,6.80
2022-12-28T14:14:36.519Z,6.20
2022-12-28T14:19:39.865Z,7.20
2022-12-28T14:25:02.865Z,15.70
2022-12-28T14:30:09.598Z,7.33
2022-12-28T14:35:23.901Z,9.83
2022-12-28T14:40:32.458Z,7.30
2022-12-28T14:46:07.615Z,7.47
2022-12-28T14:51:15.705Z,7.37
2022-12-28T14:56:21.675Z,11.33
2022-12-28T15:01:25.802Z,14.03
2022-12-28T15:06:32.497Z,9.73
2022-12-28T15:11:38.962Z,10.97
2022-12-28T15:16:42.605Z,7.93
2022-12-28T15:21:49.085Z,10.17
2022-12-28T15:26:54.035Z,11.23
2022-12-28T15:31:57.215Z,14.80
2022-12-28T15:37:09.489Z,10.60
2022-12-28T15:42:15.099Z,9.73
2022-12-28T15:47:21.431Z,7.47
2022-12-28T15:52:24.942Z,7.70
2022-12-28T15:57:29.772Z,7.77
2022-12-28T16:02:36.278Z,13.07
2022-12-28T16:07:39.534Z,9.23
2022-12-28T16:12:42.978Z,8.53
2022-12-28T16:17:55.049Z,8.00
2022-12-28T16:23:00.147Z,8.13
2022-12-28T16:28:03.441Z,14.27
2022-12-28T16:33:06.535Z,8.30
2022-12-28T16:38:09.461Z,8.07
2022-12-28T16:43:12.863Z,7.83
2022-12-28T16:48:16.675Z,10.83
2022-12-28T16:53:24.486Z,10.03
2022-12-28T16:58:28.629Z,8.83
2022-12-28T17:03:31.700Z,15.10
2022-12-28T17:08:35.975Z,6.97
2022-12-28T17:13:39.307Z,6.67
2022-12-28T17:18:42.983Z,7.43
2022-12-28T17:23:46.047Z,11.70
2022-12-28T17:28:49.290Z,12.90
2022-12-28T17:33:54.528Z,10.43
2022-12-28T17:38:57.964Z,6.97
2022-12-28T17:44:01.148Z,5.93
2022-12-28T17:49:04.382Z,5.50
2022-12-28T17:54:07.444Z,6.30
2022-12-28T17:59:16.104Z,5.90
2022-12-28T18:04:19.388Z,6.23
2022-12-28T18:09:27.588Z,7.00
2022-12-28T18:14:30.873Z,5.83
2022-12-28T18:19:33.732Z,15.27
2022-12-28T18:24:36.983Z,6.80
2022-12-28T18:29:40.026Z,6.70
2022-12-28T18:34:43.018Z,6.37
2022-12-28T18:39:45.981Z,14.27
2022-12-28T18:44:48.931Z,7.83
2022-12-28T18:49:51.892Z,7.80
2022-12-28T18:54:57.101Z,5.57
2022-12-28T19:00:00.165Z,4.40
2022-12-28T19:05:04.258Z,4.60
2022-12-28T19:10:15.487Z,8.23
2022-12-28T19:15:18.957Z,11.00
2022-12-28T19:20:22.286Z,9.07
2022-12-28T19:25:25.366Z,7.50
2022-12-28T19:30:31.528Z,7.67
2022-12-28T19:35:34.647Z,10.80
2022-12-28T19:40:37.572Z,7.60
2022-12-28T19:45:40.551Z,4.40
2022-12-28T19:50:43.592Z,3.87
2022-12-28T19:55:46.769Z,3.50
2022-12-28T20:00:49.793Z,4.27
2022-12-28T20:05:52.671Z,3.87
2022-12-28T20:10:56.897Z,3.93
2022-12-28T20:16:00.489Z,4.10
2022-12-28T20:21:22.623Z,4.30
2022-12-28T20:26:27.263Z,4.87
2022-12-28T20:31:31.380Z,4.23
2022-12-28T20:36:35.055Z,4.27
2022-12-28T20:41:56.470Z,4.23
2022-12-28T20:47:00.432Z,4.50
2022-12-28T20:52:03.798Z,5.60
2022-12-28T20:57:07.147Z,8.27
2022-12-28T21:02:10.618Z,4.77
2022-12-28T21:07:13.862Z,4.50
2022-12-28T21:12:17.316Z,7.93
2022-12-28T21:17:20.734Z,10.40
2022-12-28T21:22:24.413Z,12.13
2022-12-28T21:27:29.400Z,5.90
2022-12-28T21:32:36.071Z,6.20
2022-12-28T21:37:43.160Z,5.93
2022-12-28T21:42:46.338Z,6.47
2022-12-28T21:47:49.676Z,6.03
2022-12-28T21:52:53.302Z,5.10
2022-12-28T21:57:58.667Z,6.27
2022-12-28T22:03:22.118Z,5.63
2022-12-28T22:08:43.687Z,5.93
2022-12-28T22:13:46.835Z,6.70
2022-12-28T22:19:02.238Z,6.70
2022-12-28T22:24:06.225Z,7.80
2022-12-28T22:29:09.561Z,7.50
2022-12-28T22:34:12.812Z,7.43
2022-12-28T22:39:16.271Z,9.00
2022-12-28T22:44:21.869Z,6.87
2022-12-28T22:49:24.955Z,11.47
2022-12-28T22:54:28.176Z,21.63
2022-12-28T22:59:31.435Z,16.20
2022-12-28T23:04:37.962Z,19.77
2022-12-28T23:09:41.692Z,23.53
2022-12-28T23:15:03.445Z,36.07
2022-12-28T23:20:26.099Z,17.93
2022-12-28T23:25:47.892Z,9.33
2022-12-28T23:30:51.888Z,8.50
2022-12-28T23:35:55.768Z,8.60
2022-12-28T23:41:17.394Z,8.07
2022-12-28T23:46:21.599Z,6.97
2022-12-28T23:51:24.811Z,8.43
2022-12-28T23:56:28.392Z,7.90
